Data for 08/31/2009

Time Sea-Level Adjusted Pressure Absolute Pressure Temperature Relative Humidity Dew Point   
(mb) (inHg) (mb) (inHg) (C) (F) (%) (C) (F)
00:05 1018 30.06 847 25.01 17.9 64.3 49 7.1 44.8
00:10 1018 30.06 847 25.01 17.3 63.2 50 7 44.5
00:15 1017 30.03 847 25.01 17.2 63 49 6.6 43.9
00:20 1018 30.06 847 25.01 17.5 63.4 50 7 44.6
00:25 1019 30.09 848 25.04 17.5 63.5 49 6.8 44.2
00:30 1019 30.09 848 25.04 17.6 63.7 49 6.8 44.2
00:35 1019 30.09 848 25.04 17.7 63.8 48 6.7 44.1
00:40 1019 30.09 848 25.04 17.6 63.7 49 6.8 44.2
00:45 1019 30.09 848 25.04 17.6 63.8 48 6.7 44
00:50 1019 30.09 848 25.04 17.7 63.8 48 6.7 44
00:55 1019 30.09 848 25.04 17.7 63.8 48 6.6 43.9
01:00 1019 30.09 848 25.04 17.6 63.8 49 6.8 44.3
01:05 1018 30.06 848 25.04 17.5 63.5 49 6.8 44.3
01:10 1018 30.06 847 25.01 17.3 63.1 51 7.1 44.8
01:15 1018 30.06 847 25.01 17 62.6 52 7.1 44.8
01:20 1018 30.06 847 25.01 17.1 62.8 49 6.5 43.7
01:25 1018 30.06 847 25.01 17.4 63.2 53 7.9 46.3
01:30 1019 30.09 848 25.04 17.4 63.4 50 7.1 44.8
01:35 1018 30.06 848 25.04 17.4 63.3 50 7.1 44.8
01:40 1018 30.06 847 25.01 16.9 62.4 52 7.1 44.7
01:45 1018 30.06 847 25.01 16.8 62.2 52 6.9 44.5
01:50 1018 30.06 847 25.01 16.8 62.2 51 6.7 44.1
01:55 1017 30.03 846 24.98 16.9 62.4 52 7 44.7
02:00 1018 30.06 847 25.01 16.9 62.4 52 7.1 44.8
02:05 1018 30.06 847 25.01 17 62.6 49 6.3 43.3
02:10 1018 30.06 847 25.01 17.5 63.5 48 6.5 43.8
02:15 1018 30.06 847 25.01 17.5 63.5 49 6.8 44.3
02:20 1017 30.03 847 25.01 17.3 63.1 52 7.4 45.3
02:25 1018 30.06 847 25.01 17.1 62.8 50 6.8 44.3
02:30 1018 30.06 847 25.01 17.1 62.7 50 6.8 44.2
02:35 1018 30.06 847 25.01 16.9 62.4 53 7.5 45.5
02:40 1018 30.06 847 25.01 16.6 61.8 53 7.1 44.9
02:45 1018 30.06 847 25.01 16.5 61.7 53 6.8 44.3
02:50 1018 30.06 847 25.01 16.7 62 52 6.9 44.5
02:55 1018 30.06 847 25.01 16.7 62 55 7.7 45.8
03:00 1018 30.06 847 25.01 16.2 61.2 57 7.7 45.8
03:05 1018 30.06 847 25.01 15.9 60.5 58 7.8 46
03:10 1018 30.06 847 25.01 15.6 60.1 62 8.5 47.4
03:15 1018 30.06 847 25.01 15.5 59.8 62 8.2 46.7
03:20 1018 30.06 847 25.01 15.4 59.8 59 7.6 45.7
03:25 1018 30.06 847 25.01 15 59 61 7.5 45.5
03:30 1018 30.06 847 25.01 14.8 58.7 60 7.3 45.2
03:35 1018 30.06 847 25.01 14.8 58.6 61 7.3 45.2
03:40 1018 30.06 847 25.01 14.9 58.9 59 7 44.6
03:45 1018 30.06 847 25.01 15.4 59.6 57 7.1 44.7
03:50 1018 30.06 847 25.01 15.5 59.9 59 7.5 45.6
03:55 1018 30.06 847 25.01 15.3 59.6 61 7.9 46.1
04:00 1018 30.06 847 25.01 14.9 58.9 62 7.8 46
04:05 1018 30.06 848 25.04 14.7 58.4 63 7.7 45.9
04:10 1018 30.06 848 25.04 14.5 58.1 63 7.7 45.8
04:15 1019 30.09 848 25.04 14.5 58 64 7.7 45.9
04:20 1019 30.09 848 25.04 14.4 58 64 7.8 46.1
04:25 1019 30.09 848 25.04 14.4 57.9 66 8.2 46.8
04:30 1019 30.09 848 25.04 14.3 57.7 65 7.8 46.1
04:35 1019 30.09 848 25.04 14.2 57.5 65 7.7 45.9
04:40 1019 30.09 848 25.04 14.2 57.5 66 7.9 46.2
04:45 1019 30.09 848 25.04 14.1 57.3 67 8 46.3
04:50 1019 30.09 848 25.04 13.8 56.8 68 8 46.4
04:55 1019 30.09 848 25.04 13.5 56.4 69 8.1 46.5
05:00 1019 30.09 848 25.04 13.5 56.3 69 8 46.3
05:05 1019 30.09 848 25.04 13.9 56.9 65 7.5 45.6
05:10 1018 30.06 848 25.04 14.2 57.5 64 7.6 45.7
05:15 1019 30.09 848 25.04 14.3 57.8 63 7.5 45.5
05:20 1019 30.09 848 25.04 14.4 58 66 8.3 46.9
05:25 1019 30.09 848 25.04 14.1 57.4 67 8.2 46.7
05:30 1019 30.09 848 25.04 14.1 57.4 65 7.7 45.9
05:35 1019 30.09 848 25.04 14.3 57.7 64 7.7 45.8
05:40 1019 30.09 848 25.04 14.5 58 61 7.2 45
05:45 1018 30.06 848 25.04 14.7 58.5 61 7.4 45.4
05:50 1018 30.06 848 25.04 14.8 58.6 62 7.8 46
05:55 1018 30.06 847 25.01 14.6 58.3 64 8 46.4
06:00 1018 30.06 847 25.01 14.1 57.4 65 7.6 45.6
06:05 1018 30.06 847 25.01 14 57.2 63 7.1 44.8
06:10 1017 30.03 846 24.98 14.4 57.8 62 7.3 45.2
06:15 1016 30 845 24.95 14.3 57.7 61 7 44.6
06:20 1015 29.97 845 24.95 14.9 58.8 56 6.3 43.3
06:25 1015 29.97 845 24.95 16.1 61 51 6 42.8
06:30 1016 30 845 24.95 16.5 61.6 55 7.4 45.3
06:35 1016 30 845 24.95 16.1 61 54 6.9 44.5
06:40 1016 30 845 24.95 16 60.7 54 6.8 44.3
06:45 1016 30 845 24.95 15.9 60.7 54 6.8 44.3
06:50 1016 30 845 24.95 15.9 60.6 54 6.6 43.9
06:55 1016 30 845 24.95 16.1 61 53 6.7 44.1
07:00 1016 30 845 24.95 16.2 61.1 52 6.4 43.5
07:05 1016 30 845 24.95 16.5 61.7 51 6.5 43.7
07:10 1016 30 845 24.95 16.5 61.6 52 6.6 43.9
07:15 1016 30 845 24.95 16.6 61.8 50 6.3 43.3
07:20 1016 30 845 24.95 16.8 62.2 50 6.4 43.5
07:25 1016 30 846 24.98 16.7 62.1 51 6.6 43.9
07:30 1016 30 846 24.98 16.7 62 51 6.5 43.7
07:35 1016 30 845 24.95 16.7 62.1 50 6.5 43.7
07:40 1016 30 846 24.98 16.8 62.2 51 6.6 43.9
07:45 1016 30 846 24.98 16.9 62.3 50 6.4 43.5
07:50 1016 30 846 24.98 17 62.5 49 6.4 43.5
07:55 1016 30 846 24.98 17.1 62.8 49 6.4 43.5
08:00 1016 30 846 24.98 17.4 63.2 48 6.4 43.5
08:05 1016 30 846 24.98 17.8 64 46 6.2 43.1
08:10 1017 30.03 846 24.98 17.9 64.1 47 6.5 43.8
08:15 1017 30.03 846 24.98 17.8 64.1 46 6.2 43.2
08:20 1017 30.03 846 24.98 17.9 64.2 46 6.2 43.1
08:25 1017 30.03 846 24.98 18.4 65.2 44 6.2 43.2
08:30 1017 30.03 846 24.98 18.9 66 44 6.4 43.5
08:35 1017 30.03 846 24.98 19.2 66.5 44 6.9 44.4
08:40 1017 30.03 846 24.98 19 66.3 47 7.5 45.4
08:45 1017 30.03 847 25.01 18.6 65.6 49 7.7 45.9
08:50 1018 30.06 847 25.01 17.9 64.2 51 7.8 46.1
08:55 1018 30.06 847 25.01 17.6 63.7 52 7.8 46.1
09:00 1018 30.06 847 25.01 17.5 63.4 52 7.7 45.8
09:05 1018 30.06 848 25.04 17.6 63.6 51 7.5 45.6
09:10 1018 30.06 847 25.01 17.7 63.9 51 7.5 45.5
09:15 1018 30.06 848 25.04 17.7 63.8 53 8.1 46.6
09:20 1018 30.06 847 25.01 17.5 63.4 55 8.5 47.3
09:25 1018 30.06 847 25.01 17.1 62.8 55 8.1 46.6
09:30 1018 30.06 847 25.01 16.8 62.3 57 8.4 47.2
09:35 1018 30.06 847 25.01 16.8 62.2 59 8.7 47.7
09:40 1018 30.06 847 25.01 16.7 62.1 60 8.9 48
09:45 1018 30.06 847 25.01 16.6 61.8 60 8.9 48.1
09:50 1018 30.06 847 25.01 16.6 61.9 59 8.7 47.6
09:55 1018 30.06 847 25.01 16.8 62.3 59 8.8 47.8
10:00 1018 30.06 847 25.01 16.9 62.4 59 9 48.3
10:05 1018 30.06 847 25.01 17 62.5 59 9.1 48.3
10:10 1018 30.06 847 25.01 16.9 62.5 59 8.9 48
10:15 1018 30.06 847 25.01 16.9 62.4 59 9 48.3
10:20 1018 30.06 847 25.01 17.1 62.7 56 8.4 47.1
10:25 1018 30.06 847 25.01 17.5 63.4 51 7.4 45.4
10:30 1018 30.06 847 25.01 17.8 64.1 45 5.8 42.4
10:35 1018 30.06 847 25.01 18.2 64.8 46 6.5 43.7
10:40 1018 30.06 847 25.01 17.3 63.2 49 6.6 43.8
10:45 1018 30.06 847 25.01 17.1 62.9 51 7.2 44.9
10:50 1018 30.06 847 25.01 17.2 63 52 7.4 45.4
10:55 1018 30.06 847 25.01 16.7 62 55 7.8 46
11:00 1018 30.06 847 25.01 16.6 61.9 52 6.8 44.3
11:05 1018 30.06 847 25.01 16.9 62.4 54 7.7 45.8
11:10 1018 30.06 847 25.01 17.2 63 55 8.1 46.5
11:15 1019 30.09 848 25.04 16.9 62.4 60 9.3 48.7
11:20 1019 30.09 848 25.04 17 62.5 53 7.5 45.4
11:25 1019 30.09 848 25.04 17.3 63.1 48 6.3 43.4
11:30 1019 30.09 848 25.04 17.1 62.7 51 6.8 44.3
11:35 1018 30.06 848 25.04 17 62.5 52 7.2 45
11:40 1019 30.09 848 25.04 17 62.7 52 7.1 44.8
11:45 1019 30.09 848 25.04 17 62.5 51 6.9 44.3
11:50 1019 30.09 848 25.04 16.4 61.5 54 7 44.6
11:55 1019 30.09 848 25.04 16.3 61.4 50 6 42.9
12:00 1019 30.09 848 25.04 16.6 61.9 55 7.8 46
12:05 1019 30.09 848 25.04 16.5 61.7 57 8 46.4
12:10 1019 30.09 848 25.04 16.7 62.1 58 8.4 47.1
12:15 1019 30.09 848 25.04 16.5 61.8 59 8.5 47.4
12:20 1018 30.06 848 25.04 16.5 61.7 58 8.2 46.7
12:25 1018 30.06 848 25.04 16.4 61.5 61 8.8 47.9
12:30 1018 30.06 847 25.01 16.3 61.3 60 8.6 47.4
12:35 1018 30.06 847 25.01 16.1 61 59 8.3 46.9
12:40 1018 30.06 847 25.01 16.1 61 55 7.1 44.9
12:45 1018 30.06 847 25.01 16.4 61.5 52 6.6 43.9
12:50 1018 30.06 847 25.01 16.5 61.8 53 7.1 44.7
12:55 1018 30.06 847 25.01 16.8 62.3 52 6.9 44.4
13:00 1018 30.06 847 25.01 17.2 62.9 51 7.2 44.9
13:05 1018 30.06 847 25.01 17.3 63.1 50 6.8 44.2
13:10 1018 30.06 847 25.01 17.3 63.2 50 6.8 44.3
13:15 1018 30.06 847 25.01 17.7 63.9 48 6.7 44
13:20 1018 30.06 847 25.01 18.2 64.7 45 6.2 43.1
13:25 1018 30.06 847 25.01 18.6 65.5 46 6.9 44.4
13:30 1018 30.06 847 25.01 18.9 66.1 43 6.3 43.4
13:35 1017 30.03 847 25.01 19.2 66.6 42 6.2 43.1
13:40 1017 30.03 847 25.01 19.6 67.3 40 5.8 42.4
13:45 1017 30.03 847 25.01 19.9 67.9 39 5.6 42.1
13:50 1017 30.03 847 25.01 20.3 68.5 37 5.5 41.9
13:55 1017 30.03 847 25.01 20.7 69.3 36 5.2 41.4
14:00 1017 30.03 847 25.01 21.1 70 34 5 41
14:05 1017 30.03 846 24.98 21.5 70.6 35 5.6 42.1
14:10 1017 30.03 846 24.98 21.8 71.2 34 5.5 41.8
14:15 1017 30.03 846 24.98 22.2 71.9 35 6.3 43.3
14:20 1017 30.03 846 24.98 21.9 71.4 34 5.5 41.9
14:25 1017 30.03 846 24.98 22.1 71.8 34 5.7 42.3
14:30 1017 30.03 846 24.98 22.7 72.9 33 6 42.8
14:35 1017 30.03 846 24.98 22.6 72.7 32 5.4 41.8
14:40 1017 30.03 846 24.98 22.6 72.8 34 6.1 43
14:45 1017 30.03 846 24.98 21.9 71.4 35 6 42.8
14:50 1017 30.03 846 24.98 21.3 70.4 38 6.5 43.7
14:55 1017 30.03 846 24.98 20.9 69.7 38 6.4 43.5
15:00 1017 30.03 846 24.98 20.7 69.2 39 6.6 43.8
15:05 1017 30.03 847 25.01 20.6 69 36 5 41.1
15:10 1017 30.03 847 25.01 19 66.1 45 6.8 44.2
15:15 1017 30.03 847 25.01 17.5 63.6 41 4.2 39.6
15:20 1017 30.03 847 25.01 17.3 63.2 42 4.4 39.9
15:25 1017 30.03 847 25.01 17.4 63.2 42 4.6 40.3
15:30 1017 30.03 847 25.01 17.3 63.1 44 5.2 41.3
15:35 1018 30.06 847 25.01 17.1 62.8 45 5.1 41.1
15:40 1018 30.06 847 25.01 17.3 63.1 46 5.7 42.3
15:45 1018 30.06 847 25.01 17.3 63.1 47 6.1 43
15:50 1018 30.06 847 25.01 17.5 63.4 46 5.7 42.3
15:55 1018 30.06 847 25.01 17.7 63.9 45 5.8 42.4
16:00 1018 30.06 847 25.01 18.1 64.5 49 7.3 45.1
16:05 1018 30.06 848 25.04 17.7 63.9 54 8.3 46.9
16:10 1018 30.06 848 25.04 16.9 62.4 55 7.9 46.3
16:15 1019 30.09 848 25.04 17 62.5 56 8.2 46.7
16:20 1019 30.09 848 25.04 16.7 62.1 56 8.1 46.6
16:25 1019 30.09 848 25.04 16.8 62.2 55 7.7 45.9
16:30 1019 30.09 848 25.04 17.2 63 52 7.3 45.2
16:35 1019 30.09 848 25.04 18.3 64.9 47 7 44.6
16:40 1018 30.06 848 25.04 18.5 65.2 46 6.6 43.9
16:45 1019 30.09 848 25.04 18.3 65 45 6.3 43.3
16:50 1019 30.09 848 25.04 18.3 64.9 45 6.3 43.3
16:55 1019 30.09 848 25.04 17.9 64.3 46 6.3 43.4
17:00 1019 30.09 848 25.04 17.5 63.5 54 8.3 46.9
17:05 1019 30.09 848 25.04 16.4 61.6 57 8 46.3
17:10 1019 30.09 848 25.04 16.3 61.3 55 7.4 45.3
17:15 1019 30.09 848 25.04 16.5 61.7 54 7.3 45.2
17:20 1019 30.09 848 25.04 16.7 62 54 7.4 45.4
17:25 1019 30.09 848 25.04 16.9 62.3 54 7.6 45.7
17:30 1019 30.09 848 25.04 16.9 62.5 50 6.6 43.8
17:35 1019 30.09 848 25.04 16.9 62.5 48 6 42.8
17:40 1019 30.09 848 25.04 17.3 63.2 49 6.7 44.1
17:45 1019 30.09 848 25.04 17.4 63.4 48 6.3 43.3
17:50 1019 30.09 848 25.04 17.4 63.4 50 7.1 44.8
17:55 1019 30.09 848 25.04 17.3 63.1 50 6.8 44.2
18:00 1019 30.09 848 25.04 17 62.7 52 7.1 44.8
18:05 1019 30.09 848 25.04 17.1 62.7 48 6.2 43.2
18:10 1018 30.06 848 25.04 17.2 62.9 50 6.7 44
18:15 1018 30.06 848 25.04 17.3 63.1 50 7 44.5
18:20 1018 30.06 847 25.01 17.3 63.1 51 7.1 44.7
18:25 1018 30.06 847 25.01 17 62.7 52 7.2 44.9
18:30 1018 30.06 847 25.01 17 62.6 52 7.3 45.1
18:35 1018 30.06 847 25.01 17.1 62.7 52 7.2 44.9
18:40 1018 30.06 847 25.01 17 62.7 52 7.1 44.8
18:45 1018 30.06 847 25.01 17.1 62.8 53 7.4 45.4
18:50 1018 30.06 847 25.01 17.2 62.9 53 7.7 45.8
18:55 1018 30.06 847 25.01 17 62.6 53 7.6 45.7
19:00 1018 30.06 847 25.01 17 62.5 55 7.9 46.3
19:05 1018 30.06 847 25.01 16.8 62.3 57 8.3 46.9
19:10 1018 30.06 847 25.01 16.8 62.2 59 8.7 47.7
19:15 1018 30.06 847 25.01 16.7 62.1 53 7.2 45
19:20 1018 30.06 847 25.01 16.9 62.3 57 8.4 47.2
19:25 1018 30.06 847 25.01 16.8 62.2 58 8.5 47.3
19:30 1018 30.06 847 25.01 16.7 62.1 58 8.4 47.1
19:35 1018 30.06 847 25.01 16.7 62 54 7.3 45.1
19:40 1018 30.06 847 25.01 16.7 62 53 7.1 44.7
19:45 1018 30.06 847 25.01 16.7 62.1 53 7.1 44.9
19:50 1018 30.06 847 25.01 16.8 62.2 57 8.3 46.9
19:55 1018 30.06 847 25.01 16.5 61.7 58 8.4 47
20:00 1018 30.06 847 25.01 16.3 61.4 60 8.6 47.5
20:05 1018 30.06 847 25.01 16 60.8 59 8.1 46.6
20:10 1018 30.06 847 25.01 15.9 60.6 59 8 46.4
20:15 1018 30.06 847 25.01 15.9 60.7 55 7.1 44.8
20:20 1018 30.06 847 25.01 16 60.8 56 7.3 45.1
20:25 1018 30.06 847 25.01 16 60.8 62 8.8 47.8
20:30 1018 30.06 847 25.01 15.8 60.5 57 7.4 45.3
20:35 1018 30.06 847 25.01 16 60.8 57 7.6 45.8
20:40 1018 30.06 847 25.01 16.1 61 52 6.4 43.4
20:45 1018 30.06 847 25.01 16.3 61.3 55 7.2 45
20:50 1018 30.06 847 25.01 16.3 61.3 55 7.2 45
20:55 1018 30.06 847 25.01 16.3 61.4 53 6.7 44
21:00 1018 30.06 847 25.01 16.4 61.5 53 6.8 44.2
21:05 1018 30.06 847 25.01 16.5 61.7 54 7.2 45
21:10 1018 30.06 847 25.01 16.6 61.9 55 7.7 45.9
21:15 1018 30.06 847 25.01 16.6 61.8 55 7.7 45.8
21:20 1018 30.06 847 25.01 16.5 61.6 58 8.3 46.9
21:25 1018 30.06 847 25.01 16.3 61.3 57 7.8 46
21:30 1018 30.06 847 25.01 16.1 60.9 58 7.8 46.1
21:35 1018 30.06 847 25.01 15.9 60.6 62 8.7 47.7
21:40 1018 30.06 847 25.01 15.3 59.6 62 8.3 46.9
21:45 1018 30.06 847 25.01 15.2 59.4 66 8.9 48.1
21:50 1018 30.06 847 25.01 14.6 58.2 69 9 48.3
21:55 1018 30.06 847 25.01 14.2 57.6 68 8.4 47.1
22:00 1018 30.06 847 25.01 14.2 57.6 64 7.6 45.8
22:05 1018 30.06 847 25.01 14.5 58.2 66 8.4 47.1
22:10 1018 30.06 847 25.01 15.1 59.2 60 7.4 45.3
22:15 1018 30.06 847 25.01 15.5 59.8 57 7.1 44.8
22:20 1018 30.06 847 25.01 15.6 60.1 55 6.8 44.2
22:25 1018 30.06 847 25.01 15.9 60.7 56 7.2 45
22:30 1018 30.06 847 25.01 16 60.7 56 7.2 45
22:35 1018 30.06 847 25.01 15.1 59.2 62 8 46.4
22:40 1018 30.06 847 25.01 14.3 57.8 64 7.6 45.6
22:45 1018 30.06 847 25.01 14.1 57.4 62 7 44.6
22:50 1018 30.06 847 25.01 14.2 57.5 64 7.6 45.7
22:55 1018 30.06 847 25.01 14.2 57.6 61 7 44.5
23:00 1018 30.06 847 25.01 14.2 57.6 65 7.7 45.8
23:05 1018 30.06 847 25.01 14 57.2 63 7.1 44.7
23:10 1018 30.06 847 25.01 13.9 57 62 6.8 44.2
23:15 1018 30.06 847 25.01 14 57.1 61 6.7 44
23:20 1018 30.06 847 25.01 14 57.2 61 6.6 43.9
23:25 1018 30.06 847 25.01 14.2 57.5 59 6.4 43.6
23:30 1018 30.06 847 25.01 14.3 57.7 59 6.4 43.5
23:35 1018 30.06 847 25.01 14.4 57.9 57 6.2 43.1
23:40 1018 30.06 847 25.01 14.6 58.3 59 6.8 44.3
23:45 1018 30.06 847 25.01 14.7 58.4 60 7.1 44.8
23:50 1018 30.06 847 25.01 14.7 58.5 60 7 44.7
23:55 1018 30.06 847 25.01 14.5 58.2 63 7.6 45.8
24:00 1018 30.06 847 25.01 14.2 57.5 65 7.7 45.9